createdAt,value
2022-11-05T00:01:30.298Z,101010.84
2022-11-05T00:04:50.204Z,101004.94
2022-11-05T00:08:12.200Z,101012.19
2022-11-05T00:11:17.891Z,101012.41
2022-11-05T00:14:38.490Z,101013.44
2022-11-05T00:17:41.045Z,101007.50
2022-11-05T00:20:42.643Z,101022.66
2022-11-05T00:24:02.785Z,101023.75
2022-11-05T00:27:04.648Z,101015.19
2022-11-05T00:30:07.296Z,101018.06
2022-11-05T00:33:09.151Z,101021.75
2022-11-05T00:36:11.651Z,101030.78
2022-11-05T00:39:13.228Z,101030.91
2022-11-05T00:42:33.365Z,101031.06
2022-11-05T00:45:34.902Z,101034.72
2022-11-05T00:48:54.803Z,101032.22
2022-11-05T00:52:14.732Z,101033.22
2022-11-05T00:55:16.331Z,101036.06
2022-11-05T00:58:19.831Z,101031.00
2022-11-05T01:01:21.460Z,101034.69
2022-11-05T01:04:23.201Z,101045.47
2022-11-05T01:07:24.749Z,101042.09
2022-11-05T01:10:27.475Z,101048.41
2022-11-05T01:13:30.618Z,101055.53
2022-11-05T01:16:32.697Z,101054.75
2022-11-05T01:19:34.387Z,101052.13
2022-11-05T01:22:35.936Z,101058.31
2022-11-05T01:25:37.631Z,101063.75
2022-11-05T01:28:39.256Z,101065.59
2022-11-05T01:31:40.895Z,101061.25
2022-11-05T01:34:42.404Z,101059.66
2022-11-05T01:37:44.593Z,101055.44
2022-11-05T01:40:46.994Z,101053.03
2022-11-05T01:43:57.528Z,101057.56
2022-11-05T01:46:59.115Z,101057.69
2022-11-05T01:50:05.625Z,101063.84
2022-11-05T01:53:15.782Z,101071.88
2022-11-05T01:56:29.219Z,101064.84
2022-11-05T01:59:36.980Z,101061.41
2022-11-05T02:02:38.965Z,101064.16
2022-11-05T02:05:41.860Z,101055.34
2022-11-05T02:08:51.631Z,101054.56
2022-11-05T02:11:53.663Z,101047.53
2022-11-05T02:14:56.958Z,101059.91
2022-11-05T02:18:18.591Z,101048.47
2022-11-05T02:21:52.424Z,101061.69
2022-11-05T02:25:29.511Z,101060.03
2022-11-05T02:28:42.975Z,101054.81
2022-11-05T02:31:44.452Z,101061.00
2022-11-05T02:34:56.867Z,101053.16
2022-11-05T02:38:13.063Z,101062.94
2022-11-05T02:41:25.782Z,101072.75
2022-11-05T02:45:14.762Z,101070.09
2022-11-05T02:48:31.309Z,101071.88
2022-11-05T02:51:59.266Z,101069.34
2022-11-05T02:55:10.196Z,101078.28
2022-11-05T02:58:11.866Z,101078.41
2022-11-05T03:01:13.437Z,101077.59
2022-11-05T03:04:18.710Z,101071.63
2022-11-05T03:07:34.459Z,101075.25
2022-11-05T03:10:45.600Z,101081.53
2022-11-05T03:14:22.846Z,101085.97
2022-11-05T03:17:39.233Z,101088.78
2022-11-05T03:21:03.119Z,101095.03
2022-11-05T03:24:16.734Z,101091.66
2022-11-05T03:27:29.267Z,101090.09
2022-11-05T03:30:35.451Z,101088.44
2022-11-05T03:33:39.990Z,101095.53
2022-11-05T03:36:47.144Z,101094.69
2022-11-05T03:39:57.429Z,101101.75
2022-11-05T03:43:01.728Z,101094.69
2022-11-05T03:46:09.889Z,101092.88
2022-11-05T03:49:17.694Z,101098.16
2022-11-05T03:52:24.512Z,101094.63
2022-11-05T03:55:35.851Z,101091.06
2022-11-05T03:58:42.806Z,101089.34
2022-11-05T04:01:44.694Z,101099.03
2022-11-05T04:04:46.663Z,101105.28
2022-11-05T04:08:11.421Z,101103.59
2022-11-05T04:11:33.854Z,101101.88
2022-11-05T04:14:35.364Z,101114.28
2022-11-05T04:17:36.929Z,101117.78
2022-11-05T04:20:57.056Z,101113.41
2022-11-05T04:24:10.534Z,101115.34
2022-11-05T04:27:12.063Z,101119.78
2022-11-05T04:30:24.409Z,101117.31
2022-11-05T04:33:25.948Z,101118.22
2022-11-05T04:36:27.476Z,101123.59
2022-11-05T04:39:29.031Z,101119.31
2022-11-05T04:42:30.560Z,101118.59
2022-11-05T04:45:36.662Z,101121.28
2022-11-05T04:48:38.564Z,101119.69
2022-11-05T04:51:40.060Z,101118.91
2022-11-05T04:54:41.587Z,101120.78
2022-11-05T04:57:43.253Z,101128.81
2022-11-05T05:00:44.885Z,101124.50
2022-11-05T05:03:48.384Z,101128.13
2022-11-05T05:06:49.959Z,101132.69
2022-11-05T05:09:51.523Z,101130.94
2022-11-05T05:12:53.062Z,101138.06
2022-11-05T05:15:54.558Z,101139.91
2022-11-05T05:18:56.114Z,101141.75
2022-11-05T05:21:57.615Z,101147.16
2022-11-05T05:25:00.131Z,101148.91
2022-11-05T05:28:01.680Z,101142.84
2022-11-05T05:31:03.331Z,101148.13
2022-11-05T05:34:06.133Z,101150.88
2022-11-05T05:37:07.693Z,101161.50
2022-11-05T05:40:10.230Z,101160.63
2022-11-05T05:43:12.215Z,101158.91
2022-11-05T05:46:16.229Z,101156.91
2022-11-05T05:49:17.803Z,101157.81
2022-11-05T05:52:19.602Z,101155.25
2022-11-05T05:55:21.485Z,101150.94
2022-11-05T05:58:24.615Z,101163.31
2022-11-05T06:01:26.468Z,101172.22
2022-11-05T06:04:28.107Z,101174.97
2022-11-05T06:07:34.441Z,101176.81
2022-11-05T06:10:38.625Z,101177.78
2022-11-05T06:13:40.609Z,101178.69
2022-11-05T06:16:42.172Z,101173.94
2022-11-05T06:19:44.016Z,101180.13
2022-11-05T06:22:55.239Z,101184.53
2022-11-05T06:26:00.275Z,101182.88
2022-11-05T06:29:01.785Z,101186.50
2022-11-05T06:32:03.405Z,101183.16
2022-11-05T06:35:05.558Z,101182.34
2022-11-05T06:38:07.099Z,101183.34
2022-11-05T06:41:10.588Z,101187.88
2022-11-05T06:44:12.475Z,101192.38
2022-11-05T06:47:14.069Z,101194.22
2022-11-05T06:50:15.641Z,101199.50
2022-11-05T06:53:17.247Z,101207.41
2022-11-05T06:56:18.840Z,101215.25
2022-11-05T06:59:20.379Z,101218.75
2022-11-05T07:02:22.028Z,101222.16
2022-11-05T07:05:23.905Z,101223.69
2022-11-05T07:08:25.514Z,101225.25
2022-11-05T07:11:27.345Z,101215.22
2022-11-05T07:14:28.858Z,101227.00
2022-11-05T07:17:30.681Z,101231.81
2022-11-05T07:20:34.347Z,101233.97
2022-11-05T07:23:36.158Z,101230.06
2022-11-05T07:26:37.712Z,101233.28
2022-11-05T07:29:39.315Z,101243.59
2022-11-05T07:32:41.136Z,101237.22
2022-11-05T07:35:42.725Z,101241.41
2022-11-05T07:38:44.457Z,101240.44
2022-11-05T07:41:46.010Z,101241.13
2022-11-05T07:44:47.556Z,101241.03
2022-11-05T07:47:53.943Z,101249.72
2022-11-05T07:50:55.539Z,101249.66
2022-11-05T07:53:57.057Z,101245.97
2022-11-05T07:56:58.652Z,101243.19
2022-11-05T08:00:00.256Z,101244.84
2022-11-05T08:03:08.392Z,101245.59
2022-11-05T08:06:10.554Z,101255.13
2022-11-05T08:09:13.060Z,101247.94
2022-11-05T08:12:15.018Z,101246.88
2022-11-05T08:15:17.353Z,101245.78
2022-11-05T08:18:18.968Z,101241.28
2022-11-05T08:21:20.487Z,101236.66
2022-11-05T08:24:22.025Z,101247.00
2022-11-05T08:27:23.783Z,101241.44
2022-11-05T08:30:26.110Z,101250.00
2022-11-05T08:33:29.459Z,101247.03
2022-11-05T08:36:31.012Z,101256.47
2022-11-05T08:39:32.630Z,101248.19
2022-11-05T08:42:34.809Z,101247.88
2022-11-05T08:45:38.262Z,101249.34
2022-11-05T08:48:40.147Z,101262.25
2022-11-05T08:51:43.180Z,101257.63
2022-11-05T08:54:44.834Z,101259.06
2022-11-05T08:57:46.523Z,101263.25
2022-11-05T09:00:49.797Z,101263.03
2022-11-05T09:03:51.956Z,101260.13
2022-11-05T09:06:53.589Z,101259.78
2022-11-05T09:09:55.223Z,101261.13
2022-11-05T09:12:56.785Z,101261.66
2022-11-05T09:16:00.030Z,101250.72
2022-11-05T09:19:03.392Z,101253.00
2022-11-05T09:22:04.969Z,101257.03
2022-11-05T09:25:07.331Z,101252.94
2022-11-05T09:28:16.733Z,101260.31
2022-11-05T09:31:18.827Z,101268.63
2022-11-05T09:34:20.350Z,101265.59
2022-11-05T09:37:22.036Z,101269.72
2022-11-05T09:40:25.773Z,101269.28
2022-11-05T09:43:46.931Z,101272.28
2022-11-05T09:46:54.691Z,101273.41
2022-11-05T09:49:59.355Z,101275.22
2022-11-05T09:53:01.912Z,101276.16
2022-11-05T09:56:03.822Z,101278.97
2022-11-05T09:59:37.323Z,101282.47
2022-11-05T10:02:48.300Z,101271.03
2022-11-05T10:05:52.192Z,101276.38
2022-11-05T10:09:13.162Z,101283.81
2022-11-05T10:12:18.725Z,101275.63
2022-11-05T10:15:28.214Z,101278.44
2022-11-05T10:18:42.887Z,101281.44
2022-11-05T10:22:05.650Z,101281.94
2022-11-05T10:25:19.640Z,101287.69
2022-11-05T10:28:26.460Z,101284.50
2022-11-05T10:31:35.448Z,101284.16
2022-11-05T10:34:39.063Z,101296.91
2022-11-05T10:37:41.421Z,101292.78
2022-11-05T10:40:54.947Z,101298.41
2022-11-05T10:44:34.246Z,101305.88
2022-11-05T10:47:44.952Z,101299.31
2022-11-05T10:50:47.405Z,101312.38
2022-11-05T10:54:00.533Z,101298.72
2022-11-05T10:57:43.809Z,101309.78
2022-11-05T11:01:06.645Z,101306.75
2022-11-05T11:04:23.879Z,101307.25
2022-11-05T11:07:26.971Z,101310.38
2022-11-05T11:10:32.722Z,101306.50
2022-11-05T11:14:11.674Z,101301.56
2022-11-05T11:17:28.340Z,101304.78
2022-11-05T11:20:32.199Z,101307.94
2022-11-05T11:23:39.175Z,101314.69
2022-11-05T11:26:41.965Z,101305.38
2022-11-05T11:29:49.723Z,101310.97
2022-11-05T11:32:51.635Z,101295.53
2022-11-05T11:35:53.281Z,101300.59
2022-11-05T11:39:04.397Z,101294.94
2022-11-05T11:42:14.876Z,101292.97
2022-11-05T11:45:44.808Z,101291.41
2022-11-05T11:48:48.546Z,101293.44
2022-11-05T11:51:55.058Z,101286.75
2022-11-05T11:55:11.709Z,101298.91
2022-11-05T11:58:13.229Z,101295.31
2022-11-05T12:01:39.089Z,101295.19
2022-11-05T12:04:47.247Z,101291.78
2022-11-05T12:07:58.078Z,101289.00
2022-11-05T12:11:11.024Z,101302.06
2022-11-05T12:14:33.161Z,101293.94
2022-11-05T12:17:37.676Z,101298.53
2022-11-05T12:21:08.019Z,101295.94
2022-11-05T12:24:18.510Z,101298.63
2022-11-05T12:27:50.994Z,101306.75
2022-11-05T12:31:01.498Z,101307.69
2022-11-05T12:34:09.019Z,101308.84
2022-11-05T12:37:25.484Z,101309.78
2022-11-05T12:40:51.790Z,101303.69
2022-11-05T12:44:11.954Z,101311.06
2022-11-05T12:47:47.075Z,101304.38
2022-11-05T12:51:02.300Z,101303.03
2022-11-05T12:54:31.471Z,101308.78
2022-11-05T12:57:38.073Z,101303.63
2022-11-05T13:00:44.500Z,101304.56
2022-11-05T13:03:56.079Z,101301.16
2022-11-05T13:07:01.756Z,101298.41
2022-11-05T13:10:14.100Z,101297.44
2022-11-05T13:13:42.701Z,101290.28
2022-11-05T13:17:11.315Z,101290.28
2022-11-05T13:20:18.257Z,101292.09
2022-11-05T13:23:39.713Z,101290.47
2022-11-05T13:26:50.459Z,101284.59
2022-11-05T13:30:02.543Z,101279.47
2022-11-05T13:33:14.093Z,101282.41
2022-11-05T13:36:42.527Z,101288.78
2022-11-05T13:39:55.402Z,101280.78
2022-11-05T13:43:06.129Z,101280.72
2022-11-05T13:46:41.962Z,101291.38
2022-11-05T13:50:20.960Z,101287.94
2022-11-05T13:54:18.207Z,101293.34
2022-11-05T13:57:29.687Z,101291.75
2022-11-05T14:00:43.226Z,101290.88
2022-11-05T14:03:48.522Z,101290.03
2022-11-05T14:06:50.180Z,101291.09
2022-11-05T14:10:00.898Z,101296.44
2022-11-05T14:13:19.655Z,101286.59
2022-11-05T14:16:26.663Z,101298.22
2022-11-05T14:19:33.262Z,101295.56
2022-11-05T14:22:41.169Z,101294.69
2022-11-05T14:25:42.694Z,101296.63
2022-11-05T14:28:47.526Z,101291.66
2022-11-05T14:32:07.940Z,101293.44
2022-11-05T14:35:16.440Z,101293.56
2022-11-05T14:38:22.270Z,101305.16
2022-11-05T14:41:23.858Z,101301.84
2022-11-05T14:44:26.953Z,101298.44
2022-11-05T14:47:39.506Z,101293.16
2022-11-05T14:50:42.635Z,101300.34
2022-11-05T14:53:44.686Z,101296.88
2022-11-05T14:56:53.271Z,101301.44
2022-11-05T14:59:58.521Z,101298.88
2022-11-05T15:03:24.728Z,101301.16
2022-11-05T15:06:35.336Z,101297.91
2022-11-05T15:09:40.508Z,101287.03
2022-11-05T15:12:48.996Z,101279.81
2022-11-05T15:15:51.899Z,101279.03
2022-11-05T15:18:56.170Z,101274.84
2022-11-05T15:22:01.049Z,101274.19
2022-11-05T15:25:05.669Z,101268.09
2022-11-05T15:28:26.050Z,101276.97
2022-11-05T15:31:36.025Z,101270.00
2022-11-05T15:34:37.605Z,101277.16
2022-11-05T15:37:52.374Z,101273.72
2022-11-05T15:40:58.873Z,101273.91
2022-11-05T15:44:02.152Z,101282.88
2022-11-05T15:47:08.040Z,101278.50
2022-11-05T15:50:15.537Z,101282.13
2022-11-05T15:54:08.843Z,101286.50
2022-11-05T15:56:57.173Z,101287.53
2022-11-05T15:59:59.036Z,101282.41
2022-11-05T16:03:14.339Z,101280.88
2022-11-05T16:06:16.281Z,101292.41
2022-11-05T16:09:25.751Z,101303.16
2022-11-05T16:12:31.774Z,101306.69
2022-11-05T16:15:34.414Z,101311.16
2022-11-05T16:18:40.476Z,101299.75
2022-11-05T16:21:55.135Z,101305.94
2022-11-05T16:24:56.760Z,101304.50
2022-11-05T16:28:00.592Z,101309.94
2022-11-05T16:31:04.535Z,101310.03
2022-11-05T16:34:06.218Z,101309.56
2022-11-05T16:37:11.444Z,101315.06
2022-11-05T16:40:25.132Z,101316.97
2022-11-05T16:43:27.363Z,101322.31
2022-11-05T16:46:30.480Z,101312.78
2022-11-05T16:49:31.983Z,101320.88
2022-11-05T16:52:33.526Z,101322.69
2022-11-05T16:55:37.635Z,101321.84
2022-11-05T16:58:39.267Z,101321.06
2022-11-05T17:01:42.290Z,101321.16
2022-11-05T17:04:43.899Z,101328.38
2022-11-05T17:07:45.702Z,101326.59
2022-11-05T17:10:47.326Z,101328.38
2022-11-05T17:13:49.354Z,101331.22
2022-11-05T17:16:50.888Z,101315.72
2022-11-05T17:19:52.459Z,101323.22
2022-11-05T17:22:55.162Z,101326.06
2022-11-05T17:26:01.751Z,101324.53
2022-11-05T17:29:03.326Z,101316.63
2022-11-05T17:32:07.902Z,101323.00
2022-11-05T17:35:10.423Z,101313.78
2022-11-05T17:38:12.729Z,101308.69
2022-11-05T17:41:16.933Z,101313.91
2022-11-05T17:44:18.474Z,101304.47
2022-11-05T17:47:20.200Z,101304.75
2022-11-05T17:50:21.956Z,101305.78
2022-11-05T17:53:23.515Z,101308.56
2022-11-05T17:56:33.795Z,101308.75
2022-11-05T17:59:36.403Z,101306.06
2022-11-05T18:02:38.045Z,101314.06
2022-11-05T18:05:40.242Z,101309.88
2022-11-05T18:08:41.794Z,101308.44
2022-11-05T18:11:43.481Z,101305.06
2022-11-05T18:14:45.058Z,101302.56
2022-11-05T18:17:46.670Z,101288.66
2022-11-05T18:20:48.253Z,101298.56
2022-11-05T18:23:49.812Z,101298.75
2022-11-05T18:26:51.435Z,101295.31
2022-11-05T18:29:54.630Z,101300.03
2022-11-05T18:32:56.134Z,101304.59
2022-11-05T18:35:57.839Z,101306.41
2022-11-05T18:39:01.110Z,101312.59
2022-11-05T18:42:02.731Z,101312.69
2022-11-05T18:45:06.721Z,101305.75
2022-11-05T18:48:08.427Z,101303.16
2022-11-05T18:51:12.061Z,101299.72
2022-11-05T18:54:13.851Z,101299.06
2022-11-05T18:57:15.394Z,101302.66
2022-11-05T19:00:17.277Z,101307.22
2022-11-05T19:03:18.812Z,101305.44
2022-11-05T19:06:27.645Z,101304.63
2022-11-05T19:09:29.192Z,101303.97
2022-11-05T19:12:30.719Z,101298.66
2022-11-05T19:15:32.431Z,101290.56
2022-11-05T19:18:34.019Z,101288.75
2022-11-05T19:21:35.539Z,101288.88
2022-11-05T19:24:37.200Z,101281.81
2022-11-05T19:27:39.279Z,101294.47
2022-11-05T19:30:40.863Z,101288.28
2022-11-05T19:33:43.835Z,101280.34
2022-11-05T19:36:45.487Z,101284.06
2022-11-05T19:39:46.994Z,101277.09
2022-11-05T19:42:48.545Z,101270.38
2022-11-05T19:45:50.163Z,101263.47
2022-11-05T19:48:51.900Z,101262.03
2022-11-05T19:51:53.675Z,101272.00
2022-11-05T19:54:55.228Z,101269.41
2022-11-05T19:57:56.780Z,101266.84
2022-11-05T20:00:58.446Z,101278.34
2022-11-05T20:04:02.506Z,101274.94
2022-11-05T20:07:04.136Z,101271.41
2022-11-05T20:10:07.063Z,101289.16
2022-11-05T20:13:08.623Z,101282.13
2022-11-05T20:16:25.312Z,101283.84
2022-11-05T20:19:26.882Z,101278.63
2022-11-05T20:22:28.418Z,101275.25
2022-11-05T20:25:30.032Z,101275.25
2022-11-05T20:28:32.543Z,101281.53
2022-11-05T20:31:34.231Z,101279.81
2022-11-05T20:34:35.759Z,101278.09
2022-11-05T20:37:37.318Z,101275.44
2022-11-05T20:40:39.849Z,101270.97
2022-11-05T20:43:41.991Z,101282.56
2022-11-05T20:46:43.554Z,101277.31
2022-11-05T20:49:45.131Z,101279.97
2022-11-05T20:52:46.805Z,101269.44
2022-11-05T20:55:48.870Z,101266.03
2022-11-05T20:58:51.268Z,101265.16
2022-11-05T21:01:53.219Z,101271.41
2022-11-05T21:04:54.925Z,101268.75
2022-11-05T21:07:57.288Z,101266.09
2022-11-05T21:10:59.605Z,101272.38
2022-11-05T21:14:01.133Z,101265.41
2022-11-05T21:17:02.750Z,101261.03
2022-11-05T21:20:05.420Z,101268.16
2022-11-05T21:23:06.962Z,101253.97
2022-11-05T21:26:11.847Z,101254.09
2022-11-05T21:29:13.462Z,101245.34
2022-11-05T21:32:15.128Z,101245.34
2022-11-05T21:35:16.695Z,101252.44
2022-11-05T21:38:18.297Z,101254.34
2022-11-05T21:41:19.854Z,101247.22
2022-11-05T21:44:21.439Z,101247.31
2022-11-05T21:47:23.028Z,101247.31
2022-11-05T21:50:44.913Z,101241.13
2022-11-05T21:54:05.127Z,101230.59
2022-11-05T21:57:32.135Z,101215.59
2022-11-05T22:00:33.935Z,101211.13
2022-11-05T22:03:35.503Z,101219.19
2022-11-05T22:06:37.034Z,101221.94
2022-11-05T22:09:38.743Z,101214.78
2022-11-05T22:12:40.297Z,101206.00
2022-11-05T22:15:41.858Z,101214.91
2022-11-05T22:18:43.374Z,101222.78
2022-11-05T22:21:44.919Z,101217.38
2022-11-05T22:24:46.765Z,101204.09
2022-11-05T22:27:48.338Z,101207.53
2022-11-05T22:30:49.892Z,101215.31
2022-11-05T22:33:51.511Z,101208.13
2022-11-05T22:36:53.179Z,101210.78
2022-11-05T22:39:54.703Z,101202.88
2022-11-05T22:42:56.255Z,101202.88
2022-11-05T22:46:04.709Z,101194.81
2022-11-05T22:49:07.376Z,101202.03
2022-11-05T22:52:08.950Z,101196.72
2022-11-05T22:55:10.687Z,101189.69
2022-11-05T22:58:12.544Z,101187.94
2022-11-05T23:01:15.784Z,101186.25
2022-11-05T23:04:17.382Z,101193.25
2022-11-05T23:07:37.560Z,101192.34
2022-11-05T23:10:58.607Z,101185.28
2022-11-05T23:14:00.554Z,101189.84
2022-11-05T23:17:21.062Z,101188.69
2022-11-05T23:20:42.203Z,101182.63
2022-11-05T23:24:02.052Z,101176.53
2022-11-05T23:27:03.745Z,101176.81
2022-11-05T23:30:12.441Z,101178.00
2022-11-05T23:33:13.963Z,101173.72
2022-11-05T23:36:34.088Z,101168.56
2022-11-05T23:39:41.202Z,101169.59
2022-11-05T23:43:03.626Z,101160.09
2022-11-05T23:46:23.706Z,101154.09
2022-11-05T23:49:25.567Z,101151.63
2022-11-05T23:52:27.106Z,101148.19
2022-11-05T23:55:30.463Z,101156.31
2022-11-05T23:58:32.391Z,101157.25
